sensor_id;sensor_type;location;lat;lon;timestamp;pressure;altitude;pressure_sealevel;temperature;humidity
8253;BME280;61313;48.396;10.008;2023-04-06T00:00:18;96422.53;;;5.21;44.97
8253;BME280;61313;48.396;10.008;2023-04-06T00:02:44;96420.00;;;5.18;45.17
8253;BME280;61313;48.396;10.008;2023-04-06T00:05:09;96420.03;;;5.17;45.20
8253;BME280;61313;48.396;10.008;2023-04-06T00:07:35;96423.47;;;5.17;44.88
8253;BME280;61313;48.396;10.008;2023-04-06T00:10:01;96416.66;;;5.13;45.38
8253;BME280;61313;48.396;10.008;2023-04-06T00:12:27;96411.41;;;5.15;44.85
8253;BME280;61313;48.396;10.008;2023-04-06T00:14:52;96417.63;;;5.07;45.13
8253;BME280;61313;48.396;10.008;2023-04-06T00:17:18;96415.00;;;5.09;45.60
8253;BME280;61313;48.396;10.008;2023-04-06T00:19:43;96410.47;;;5.19;44.50
8253;BME280;61313;48.396;10.008;2023-04-06T00:22:08;96409.53;;;5.21;45.28
8253;BME280;61313;48.396;10.008;2023-04-06T00:24:34;96412.13;;;5.21;45.26
8253;BME280;61313;48.396;10.008;2023-04-06T00:27:00;96412.50;;;5.06;45.05
8253;BME280;61313;48.396;10.008;2023-04-06T00:29:26;96401.25;;;5.04;45.93
8253;BME280;61313;48.396;10.008;2023-04-06T00:31:51;96405.81;;;4.94;45.60
8253;BME280;61313;48.396;10.008;2023-04-06T00:34:17;96407.38;;;5.01;45.84
8253;BME280;61313;48.396;10.008;2023-04-06T00:36:42;96404.03;;;4.96;45.85
8253;BME280;61313;48.396;10.008;2023-04-06T00:39:08;96402.09;;;5.04;45.31
8253;BME280;61313;48.396;10.008;2023-04-06T00:41:33;96404.94;;;4.94;45.49
8253;BME280;61313;48.396;10.008;2023-04-06T00:43:59;96400.72;;;4.90;44.92
8253;BME280;61313;48.396;10.008;2023-04-06T00:46:25;96399.13;;;4.82;45.08
8253;BME280;61313;48.396;10.008;2023-04-06T00:48:50;96393.16;;;4.77;44.70
8253;BME280;61313;48.396;10.008;2023-04-06T00:51:16;96398.31;;;4.80;44.91
8253;BME280;61313;48.396;10.008;2023-04-06T00:53:41;96393.09;;;4.80;44.89
8253;BME280;61313;48.396;10.008;2023-04-06T00:56:07;96387.72;;;4.88;44.71
8253;BME280;61313;48.396;10.008;2023-04-06T00:58:35;96389.88;;;4.67;45.29
8253;BME280;61313;48.396;10.008;2023-04-06T01:01:03;96387.50;;;4.58;45.50
8253;BME280;61313;48.396;10.008;2023-04-06T01:03:29;96395.69;;;4.38;46.08
8253;BME280;61313;48.396;10.008;2023-04-06T01:05:54;96397.28;;;4.45;46.50
8253;BME280;61313;48.396;10.008;2023-04-06T01:08:24;96398.94;;;4.50;46.61
8253;BME280;61313;48.396;10.008;2023-04-06T01:10:49;96399.03;;;4.43;46.32
8253;BME280;61313;48.396;10.008;2023-04-06T01:13:15;96390.47;;;4.38;47.23
8253;BME280;61313;48.396;10.008;2023-04-06T01:15:41;96385.53;;;4.26;46.94
8253;BME280;61313;48.396;10.008;2023-04-06T01:18:08;96392.06;;;4.00;47.25
8253;BME280;61313;48.396;10.008;2023-04-06T01:20:35;96399.31;;;3.83;48.12
8253;BME280;61313;48.396;10.008;2023-04-06T01:23:01;96404.38;;;3.89;48.57
8253;BME280;61313;48.396;10.008;2023-04-06T01:25:27;96399.25;;;3.86;49.22
8253;BME280;61313;48.396;10.008;2023-04-06T01:27:52;96387.97;;;3.87;49.62
8253;BME280;61313;48.396;10.008;2023-04-06T01:30:18;96389.84;;;3.79;49.75
8253;BME280;61313;48.396;10.008;2023-04-06T01:32:43;96391.91;;;3.58;50.23
8253;BME280;61313;48.396;10.008;2023-04-06T01:35:10;96381.59;;;3.57;50.35
8253;BME280;61313;48.396;10.008;2023-04-06T01:37:36;96379.50;;;3.77;49.97
8253;BME280;61313;48.396;10.008;2023-04-06T01:40:02;96377.78;;;3.76;49.89
8253;BME280;61313;48.396;10.008;2023-04-06T01:42:28;96382.53;;;3.51;51.01
8253;BME280;61313;48.396;10.008;2023-04-06T01:44:53;96372.50;;;3.30;51.69
8253;BME280;61313;48.396;10.008;2023-04-06T01:47:18;96377.47;;;2.86;53.12
8253;BME280;61313;48.396;10.008;2023-04-06T01:49:44;96372.81;;;3.10;52.77
8253;BME280;61313;48.396;10.008;2023-04-06T01:52:09;96372.50;;;3.28;52.32
8253;BME280;61313;48.396;10.008;2023-04-06T01:54:35;96368.22;;;3.29;52.03
8253;BME280;61313;48.396;10.008;2023-04-06T01:57:00;96368.22;;;3.27;52.80
8253;BME280;61313;48.396;10.008;2023-04-06T01:59:26;96372.34;;;3.41;52.51
8253;BME280;61313;48.396;10.008;2023-04-06T02:01:51;96366.88;;;3.56;52.14
8253;BME280;61313;48.396;10.008;2023-04-06T02:04:17;96362.69;;;3.49;52.48
8253;BME280;61313;48.396;10.008;2023-04-06T02:06:42;96366.25;;;3.43;53.20
8253;BME280;61313;48.396;10.008;2023-04-06T02:09:08;96359.88;;;3.63;53.01
8253;BME280;61313;48.396;10.008;2023-04-06T02:11:33;96359.19;;;3.51;53.36
8253;BME280;61313;48.396;10.008;2023-04-06T02:13:59;96360.28;;;3.36;53.78
8253;BME280;61313;48.396;10.008;2023-04-06T02:16:26;96359.72;;;3.17;54.30
8253;BME280;61313;48.396;10.008;2023-04-06T02:18:51;96360.63;;;3.15;55.27
8253;BME280;61313;48.396;10.008;2023-04-06T02:21:17;96368.28;;;3.23;54.74
8253;BME280;61313;48.396;10.008;2023-04-06T02:23:45;96367.31;;;3.30;54.46
8253;BME280;61313;48.396;10.008;2023-04-06T02:26:12;96371.47;;;3.40;53.41
8253;BME280;61313;48.396;10.008;2023-04-06T02:28:37;96364.72;;;3.30;54.17
8253;BME280;61313;48.396;10.008;2023-04-06T02:31:03;96358.88;;;3.17;54.61
8253;BME280;61313;48.396;10.008;2023-04-06T02:33:28;96355.41;;;3.18;54.66
8253;BME280;61313;48.396;10.008;2023-04-06T02:35:54;96358.00;;;3.16;54.78
8253;BME280;61313;48.396;10.008;2023-04-06T02:38:20;96362.19;;;3.27;54.67
8253;BME280;61313;48.396;10.008;2023-04-06T02:40:45;96358.09;;;3.12;55.44
8253;BME280;61313;48.396;10.008;2023-04-06T02:43:11;96361.47;;;3.17;55.75
8253;BME280;61313;48.396;10.008;2023-04-06T02:45:36;96355.59;;;3.07;56.15
8253;BME280;61313;48.396;10.008;2023-04-06T02:48:17;96352.88;;;3.15;55.90
8253;BME280;61313;48.396;10.008;2023-04-06T02:50:52;96352.50;;;2.81;56.86
8253;BME280;61313;48.396;10.008;2023-04-06T02:53:20;96343.88;;;2.79;56.56
8253;BME280;61313;48.396;10.008;2023-04-06T02:55:55;96355.59;;;3.06;55.87
8253;BME280;61313;48.396;10.008;2023-04-06T02:58:28;96352.16;;;3.05;55.02
8253;BME280;61313;48.396;10.008;2023-04-06T03:00:56;96349.06;;;2.80;56.48
8253;BME280;61313;48.396;10.008;2023-04-06T03:03:32;96355.38;;;2.61;56.83
8253;BME280;61313;48.396;10.008;2023-04-06T03:06:03;96367.53;;;2.54;57.40
8253;BME280;61313;48.396;10.008;2023-04-06T03:08:29;96365.31;;;2.25;57.78
8253;BME280;61313;48.396;10.008;2023-04-06T03:10:55;96355.59;;;2.44;57.03
8253;BME280;61313;48.396;10.008;2023-04-06T03:15:59;96356.22;;;2.63;56.74
8253;BME280;61313;48.396;10.008;2023-04-06T03:18:41;96356.16;;;2.66;56.00
8253;BME280;61313;48.396;10.008;2023-04-06T03:21:15;96358.56;;;2.81;55.53
8253;BME280;61313;48.396;10.008;2023-04-06T03:23:46;96361.16;;;2.78;55.30
8253;BME280;61313;48.396;10.008;2023-04-06T03:26:11;96360.91;;;2.96;55.75
8253;BME280;61313;48.396;10.008;2023-04-06T03:28:37;96347.97;;;2.95;54.99
8253;BME280;61313;48.396;10.008;2023-04-06T03:31:05;96350.84;;;2.75;54.96
8253;BME280;61313;48.396;10.008;2023-04-06T03:33:30;96356.38;;;2.49;55.65
8253;BME280;61313;48.396;10.008;2023-04-06T03:35:56;96362.69;;;2.26;56.75
8253;BME280;61313;48.396;10.008;2023-04-06T03:38:21;96361.38;;;1.90;57.29
8253;BME280;61313;48.396;10.008;2023-04-06T03:40:47;96366.91;;;1.55;58.63
8253;BME280;61313;48.396;10.008;2023-04-06T03:43:12;96373.78;;;1.56;59.23
8253;BME280;61313;48.396;10.008;2023-04-06T03:45:38;96369.78;;;2.12;56.82
8253;BME280;61313;48.396;10.008;2023-04-06T03:48:04;96369.69;;;2.20;56.14
8253;BME280;61313;48.396;10.008;2023-04-06T03:53:18;96378.31;;;2.20;56.12
8253;BME280;61313;48.396;10.008;2023-04-06T03:55:44;96385.09;;;2.32;56.07
8253;BME280;61313;48.396;10.008;2023-04-06T03:58:19;96372.25;;;2.21;55.97
8253;BME280;61313;48.396;10.008;2023-04-06T04:00:44;96369.16;;;1.88;57.35
8253;BME280;61313;48.396;10.008;2023-04-06T04:03:10;96374.28;;;1.93;57.07
8253;BME280;61313;48.396;10.008;2023-04-06T04:05:36;96366.31;;;2.13;56.18
8253;BME280;61313;48.396;10.008;2023-04-06T04:08:07;96372.13;;;2.32;55.68
8253;BME280;61313;48.396;10.008;2023-04-06T04:10:32;96370.41;;;2.32;55.42
8253;BME280;61313;48.396;10.008;2023-04-06T04:12:58;96374.28;;;1.96;56.86
8253;BME280;61313;48.396;10.008;2023-04-06T04:15:23;96374.59;;;2.43;56.79
8253;BME280;61313;48.396;10.008;2023-04-06T04:17:49;96370.97;;;2.54;56.31
8253;BME280;61313;48.396;10.008;2023-04-06T04:20:15;96370.84;;;2.65;56.29
8253;BME280;61313;48.396;10.008;2023-04-06T04:22:41;96373.47;;;2.64;55.96
8253;BME280;61313;48.396;10.008;2023-04-06T04:25:10;96381.34;;;2.56;56.02
8253;BME280;61313;48.396;10.008;2023-04-06T04:27:44;96375.41;;;2.46;55.46
8253;BME280;61313;48.396;10.008;2023-04-06T04:30:13;96375.44;;;2.45;54.53
8253;BME280;61313;48.396;10.008;2023-04-06T04:32:38;96381.88;;;2.10;56.53
8253;BME280;61313;48.396;10.008;2023-04-06T04:35:13;96388.38;;;1.66;57.98
8253;BME280;61313;48.396;10.008;2023-04-06T04:37:45;96386.47;;;1.85;57.73
8253;BME280;61313;48.396;10.008;2023-04-06T04:42:56;96389.94;;;1.81;57.83
8253;BME280;61313;48.396;10.008;2023-04-06T04:45:21;96391.72;;;1.77;58.55
8253;BME280;61313;48.396;10.008;2023-04-06T04:47:47;96380.91;;;2.17;56.65
8253;BME280;61313;48.396;10.008;2023-04-06T04:50:12;96390.13;;;2.43;55.17
8253;BME280;61313;48.396;10.008;2023-04-06T04:52:38;96386.53;;;2.54;55.06
8253;BME280;61313;48.396;10.008;2023-04-06T04:55:04;96394.28;;;2.54;54.79
8253;BME280;61313;48.396;10.008;2023-04-06T04:57:29;96396.19;;;2.42;54.95
8253;BME280;61313;48.396;10.008;2023-04-06T04:59:55;96388.03;;;1.98;55.72
8253;BME280;61313;48.396;10.008;2023-04-06T05:02:20;96389.38;;;2.31;54.91
8253;BME280;61313;48.396;10.008;2023-04-06T05:04:46;96397.84;;;2.49;53.52
8253;BME280;61313;48.396;10.008;2023-04-06T05:07:11;96397.50;;;2.75;53.22
8253;BME280;61313;48.396;10.008;2023-04-06T05:09:37;96401.59;;;2.90;52.60
8253;BME280;61313;48.396;10.008;2023-04-06T05:12:02;96399.59;;;3.12;52.87
8253;BME280;61313;48.396;10.008;2023-04-06T05:14:28;96397.56;;;2.70;53.41
8253;BME280;61313;48.396;10.008;2023-04-06T05:16:53;96402.84;;;2.63;53.22
8253;BME280;61313;48.396;10.008;2023-04-06T05:19:19;96408.00;;;2.64;53.18
8253;BME280;61313;48.396;10.008;2023-04-06T05:21:45;96405.16;;;2.83;52.67
8253;BME280;61313;48.396;10.008;2023-04-06T05:24:10;96404.06;;;2.99;52.18
8253;BME280;61313;48.396;10.008;2023-04-06T05:26:36;96411.53;;;3.21;51.89
8253;BME280;61313;48.396;10.008;2023-04-06T05:29:02;96400.56;;;3.02;53.13
8253;BME280;61313;48.396;10.008;2023-04-06T05:31:27;96417.09;;;2.94;53.25
8253;BME280;61313;48.396;10.008;2023-04-06T05:33:53;96414.72;;;2.79;53.62
8253;BME280;61313;48.396;10.008;2023-04-06T05:36:18;96413.66;;;2.94;53.27
8253;BME280;61313;48.396;10.008;2023-04-06T05:38:44;96412.56;;;3.12;52.42
8253;BME280;61313;48.396;10.008;2023-04-06T05:41:09;96417.84;;;3.62;51.34
8253;BME280;61313;48.396;10.008;2023-04-06T05:43:36;96420.81;;;4.36;49.22
8253;BME280;61313;48.396;10.008;2023-04-06T05:46:01;96414.94;;;5.12;47.15
8253;BME280;61313;48.396;10.008;2023-04-06T05:48:27;96409.78;;;5.84;45.05
8253;BME280;61313;48.396;10.008;2023-04-06T05:50:52;96412.53;;;6.46;44.06
8253;BME280;61313;48.396;10.008;2023-04-06T05:53:21;96412.00;;;6.94;42.35
8253;BME280;61313;48.396;10.008;2023-04-06T05:55:47;96413.94;;;7.46;41.37
8253;BME280;61313;48.396;10.008;2023-04-06T05:58:12;96412.38;;;7.95;40.02
8253;BME280;61313;48.396;10.008;2023-04-06T06:00:38;96412.41;;;8.20;38.91
8253;BME280;61313;48.396;10.008;2023-04-06T06:03:03;96408.41;;;8.35;39.03
8253;BME280;61313;48.396;10.008;2023-04-06T06:05:29;96412.50;;;8.43;38.48
8253;BME280;61313;48.396;10.008;2023-04-06T06:07:55;96410.41;;;8.53;37.97
8253;BME280;61313;48.396;10.008;2023-04-06T06:10:21;96405.28;;;8.97;37.27
8253;BME280;61313;48.396;10.008;2023-04-06T06:12:46;96417.81;;;8.65;37.73
8253;BME280;61313;48.396;10.008;2023-04-06T06:15:12;96416.94;;;7.33;39.70
8253;BME280;61313;48.396;10.008;2023-04-06T06:17:37;96418.81;;;7.84;40.28
8253;BME280;61313;48.396;10.008;2023-04-06T06:20:07;96411.88;;;8.35;39.14
8253;BME280;61313;48.396;10.008;2023-04-06T06:22:33;96420.47;;;7.87;39.46
8253;BME280;61313;48.396;10.008;2023-04-06T06:24:59;96425.31;;;8.24;38.75
8253;BME280;61313;48.396;10.008;2023-04-06T06:27:24;96413.88;;;8.02;38.46
8253;BME280;61313;48.396;10.008;2023-04-06T06:29:50;96414.78;;;8.26;38.84
8253;BME280;61313;48.396;10.008;2023-04-06T06:32:15;96420.53;;;8.62;37.66
8253;BME280;61313;48.396;10.008;2023-04-06T06:34:41;96423.13;;;7.01;41.17
8253;BME280;61313;48.396;10.008;2023-04-06T06:37:06;96417.28;;;7.51;40.12
8253;BME280;61313;48.396;10.008;2023-04-06T06:39:32;96416.84;;;8.18;39.12
8253;BME280;61313;48.396;10.008;2023-04-06T06:41:57;96417.56;;;8.21;39.05
8253;BME280;61313;48.396;10.008;2023-04-06T06:44:25;96420.25;;;8.20;39.12
8253;BME280;61313;48.396;10.008;2023-04-06T06:46:51;96429.56;;;7.19;40.26
8253;BME280;61313;48.396;10.008;2023-04-06T06:49:17;96430.03;;;7.60;40.17
8253;BME280;61313;48.396;10.008;2023-04-06T06:51:42;96419.50;;;8.16;39.50
8253;BME280;61313;48.396;10.008;2023-04-06T06:54:08;96428.78;;;7.98;39.78
8253;BME280;61313;48.396;10.008;2023-04-06T06:56:33;96427.16;;;8.47;38.95
8253;BME280;61313;48.396;10.008;2023-04-06T06:59:01;96416.72;;;8.95;38.38
8253;BME280;61313;48.396;10.008;2023-04-06T07:01:26;96409.63;;;9.66;36.79
8253;BME280;61313;48.396;10.008;2023-04-06T07:03:51;96411.28;;;10.33;35.26
8253;BME280;61313;48.396;10.008;2023-04-06T07:06:17;96415.63;;;10.12;35.46
8253;BME280;61313;48.396;10.008;2023-04-06T07:08:42;96410.34;;;9.91;36.01
8253;BME280;61313;48.396;10.008;2023-04-06T07:11:08;96411.31;;;9.89;36.58
8253;BME280;61313;48.396;10.008;2023-04-06T07:13:33;96407.97;;;10.69;34.71
8253;BME280;61313;48.396;10.008;2023-04-06T07:15:59;96411.50;;;10.27;36.09
8253;BME280;61313;48.396;10.008;2023-04-06T07:18:24;96416.50;;;9.46;36.69
8253;BME280;61313;48.396;10.008;2023-04-06T07:20:50;96419.06;;;10.75;35.17
8253;BME280;61313;48.396;10.008;2023-04-06T07:23:15;96417.63;;;10.68;35.41
8253;BME280;61313;48.396;10.008;2023-04-06T07:25:41;96419.81;;;10.16;35.94
8253;BME280;61313;48.396;10.008;2023-04-06T07:28:07;96408.56;;;10.34;36.28
8253;BME280;61313;48.396;10.008;2023-04-06T07:30:32;96420.41;;;10.23;35.87
8253;BME280;61313;48.396;10.008;2023-04-06T07:32:58;96408.06;;;11.05;34.59
8253;BME280;61313;48.396;10.008;2023-04-06T07:35:27;96411.91;;;10.98;34.05
8253;BME280;61313;48.396;10.008;2023-04-06T07:38:01;96411.91;;;10.38;35.31
8253;BME280;61313;48.396;10.008;2023-04-06T07:40:26;96415.78;;;10.29;36.54
8253;BME280;61313;48.396;10.008;2023-04-06T07:42:52;96413.00;;;11.13;34.63
8253;BME280;61313;48.396;10.008;2023-04-06T07:45:18;96416.16;;;11.00;34.09
8253;BME280;61313;48.396;10.008;2023-04-06T07:47:44;96420.00;;;10.54;35.09
8253;BME280;61313;48.396;10.008;2023-04-06T07:50:09;96415.78;;;10.70;35.73
8253;BME280;61313;48.396;10.008;2023-04-06T07:52:35;96413.69;;;10.37;35.89
8253;BME280;61313;48.396;10.008;2023-04-06T07:55:01;96416.19;;;10.41;36.75
8253;BME280;61313;48.396;10.008;2023-04-06T07:57:26;96416.22;;;11.75;34.21
8253;BME280;61313;48.396;10.008;2023-04-06T07:59:52;96411.00;;;11.18;34.51
8253;BME280;61313;48.396;10.008;2023-04-06T08:02:18;96418.16;;;11.14;35.11
8253;BME280;61313;48.396;10.008;2023-04-06T08:04:43;96422.47;;;11.91;34.23
8253;BME280;61313;48.396;10.008;2023-04-06T08:07:09;96418.44;;;12.01;33.55
8253;BME280;61313;48.396;10.008;2023-04-06T08:09:35;96407.94;;;12.87;32.27
8253;BME280;61313;48.396;10.008;2023-04-06T08:12:00;96405.09;;;13.07;31.10
8253;BME280;61313;48.396;10.008;2023-04-06T08:14:26;96403.84;;;12.81;31.31
8253;BME280;61313;48.396;10.008;2023-04-06T08:16:51;96408.16;;;13.00;31.47
8253;BME280;61313;48.396;10.008;2023-04-06T08:19:17;96406.44;;;13.64;29.59
8253;BME280;61313;48.396;10.008;2023-04-06T08:21:44;96399.44;;;13.94;29.56
8253;BME280;61313;48.396;10.008;2023-04-06T08:24:11;96406.91;;;13.86;29.11
8253;BME280;61313;48.396;10.008;2023-04-06T08:26:36;96401.63;;;14.02;28.51
8253;BME280;61313;48.396;10.008;2023-04-06T08:29:03;96402.13;;;14.09;27.70
8253;BME280;61313;48.396;10.008;2023-04-06T08:31:29;96396.06;;;14.23;27.90
8253;BME280;61313;48.396;10.008;2023-04-06T08:33:55;96394.00;;;14.28;27.99
8253;BME280;61313;48.396;10.008;2023-04-06T08:36:21;96404.88;;;14.52;27.24
8253;BME280;61313;48.396;10.008;2023-04-06T08:38:48;96402.03;;;14.40;27.16
8253;BME280;61313;48.396;10.008;2023-04-06T08:41:15;96403.94;;;14.08;26.98
8253;BME280;61313;48.396;10.008;2023-04-06T08:44:00;96402.41;;;14.04;26.19
8253;BME280;61313;48.396;10.008;2023-04-06T08:46:26;96404.28;;;14.02;27.28
8253;BME280;61313;48.396;10.008;2023-04-06T08:48:59;96405.63;;;14.09;27.41
8253;BME280;61313;48.396;10.008;2023-04-06T08:51:26;96399.88;;;14.47;26.46
8253;BME280;61313;48.396;10.008;2023-04-06T08:53:58;96394.97;;;14.41;26.37
8253;BME280;61313;48.396;10.008;2023-04-06T08:56:26;96395.59;;;14.00;26.63
8253;BME280;61313;48.396;10.008;2023-04-06T08:58:53;96399.75;;;13.42;28.28
8253;BME280;61313;48.396;10.008;2023-04-06T09:01:27;96399.88;;;12.57;28.81
8253;BME280;61313;48.396;10.008;2023-04-06T09:03:58;96399.84;;;12.74;28.88
8253;BME280;61313;48.396;10.008;2023-04-06T09:06:26;96396.13;;;13.27;27.63
8253;BME280;61313;48.396;10.008;2023-04-06T09:08:56;96388.50;;;13.39;26.77
8253;BME280;61313;48.396;10.008;2023-04-06T09:11:22;96383.19;;;13.86;26.41
8253;BME280;61313;48.396;10.008;2023-04-06T09:13:52;96374.75;;;14.56;25.83
8253;BME280;61313;48.396;10.008;2023-04-06T09:16:19;96371.56;;;14.94;25.21
8253;BME280;61313;48.396;10.008;2023-04-06T09:18:45;96378.38;;;14.98;25.53
8253;BME280;61313;48.396;10.008;2023-04-06T09:21:11;96381.50;;;14.46;26.03
8253;BME280;61313;48.396;10.008;2023-04-06T09:23:37;96380.72;;;15.17;25.60
8253;BME280;61313;48.396;10.008;2023-04-06T09:26:11;96378.50;;;15.23;25.97
8253;BME280;61313;48.396;10.008;2023-04-06T09:28:52;96380.34;;;13.59;27.87
8253;BME280;61313;48.396;10.008;2023-04-06T09:31:25;96379.38;;;13.92;27.78
8253;BME280;61313;48.396;10.008;2023-04-06T09:33:52;96386.25;;;13.15;28.96
8253;BME280;61313;48.396;10.008;2023-04-06T09:36:18;96394.25;;;12.29;29.20
8253;BME280;61313;48.396;10.008;2023-04-06T09:38:58;96388.06;;;13.46;28.61
8253;BME280;61313;48.396;10.008;2023-04-06T09:41:27;96380.59;;;13.54;27.57
8253;BME280;61313;48.396;10.008;2023-04-06T09:44:10;96373.88;;;13.49;27.21
8253;BME280;61313;48.396;10.008;2023-04-06T09:46:38;96381.69;;;13.34;27.63
8253;BME280;61313;48.396;10.008;2023-04-06T09:49:07;96366.84;;;14.26;26.14
8253;BME280;61313;48.396;10.008;2023-04-06T09:51:37;96363.44;;;14.97;24.47
8253;BME280;61313;48.396;10.008;2023-04-06T09:54:04;96363.84;;;14.91;24.07
8253;BME280;61313;48.396;10.008;2023-04-06T09:56:46;96366.81;;;13.95;24.55
8253;BME280;61313;48.396;10.008;2023-04-06T10:02:05;96354.56;;;15.12;23.66
8253;BME280;61313;48.396;10.008;2023-04-06T10:07:06;96364.91;;;13.83;23.09
8253;BME280;61313;48.396;10.008;2023-04-06T10:09:33;96355.53;;;12.98;24.21
8253;BME280;61313;48.396;10.008;2023-04-06T10:12:05;96349.72;;;13.41;24.62
8253;BME280;61313;48.396;10.008;2023-04-06T10:14:34;96358.06;;;13.95;24.30
8253;BME280;61313;48.396;10.008;2023-04-06T10:17:03;96356.09;;;12.71;24.30
8253;BME280;61313;48.396;10.008;2023-04-06T10:22:02;96352.97;;;13.30;24.04
8253;BME280;61313;48.396;10.008;2023-04-06T10:24:30;96352.22;;;12.28;25.33
8253;BME280;61313;48.396;10.008;2023-04-06T10:27:01;96360.81;;;11.97;26.74
8253;BME280;61313;48.396;10.008;2023-04-06T10:29:27;96361.34;;;12.21;26.87
8253;BME280;61313;48.396;10.008;2023-04-06T10:31:53;96348.25;;;13.03;25.75
8253;BME280;61313;48.396;10.008;2023-04-06T10:34:20;96334.13;;;13.98;25.02
8253;BME280;61313;48.396;10.008;2023-04-06T10:36:46;96342.66;;;13.73;25.10
8253;BME280;61313;48.396;10.008;2023-04-06T10:39:11;96350.69;;;12.90;25.97
8253;BME280;61313;48.396;10.008;2023-04-06T10:41:44;96352.25;;;13.26;24.50
8253;BME280;61313;48.396;10.008;2023-04-06T10:44:21;96351.59;;;13.39;25.11
8253;BME280;61313;48.396;10.008;2023-04-06T10:46:55;96346.25;;;12.75;25.76
8253;BME280;61313;48.396;10.008;2023-04-06T10:49:20;96332.66;;;13.94;24.74
8253;BME280;61313;48.396;10.008;2023-04-06T10:51:51;96328.47;;;14.65;23.84
8253;BME280;61313;48.396;10.008;2023-04-06T10:54:18;96319.22;;;15.28;22.39
8253;BME280;61313;48.396;10.008;2023-04-06T10:56:44;96331.75;;;15.38;22.19
8253;BME280;61313;48.396;10.008;2023-04-06T10:59:09;96334.56;;;15.50;22.32
8253;BME280;61313;48.396;10.008;2023-04-06T11:01:36;96329.72;;;15.56;22.20
8253;BME280;61313;48.396;10.008;2023-04-06T11:04:01;96326.47;;;14.82;23.25
8253;BME280;61313;48.396;10.008;2023-04-06T11:06:29;96328.06;;;15.41;22.24
8253;BME280;61313;48.396;10.008;2023-04-06T11:08:57;96321.34;;;15.50;21.63
8253;BME280;61313;48.396;10.008;2023-04-06T11:11:24;96332.66;;;15.52;21.59
8253;BME280;61313;48.396;10.008;2023-04-06T11:13:59;96322.97;;;15.65;21.39
8253;BME280;61313;48.396;10.008;2023-04-06T11:16:31;96323.38;;;15.59;21.19
8253;BME280;61313;48.396;10.008;2023-04-06T11:21:51;96313.34;;;14.81;20.92
8253;BME280;61313;48.396;10.008;2023-04-06T11:24:23;96316.22;;;14.48;22.04
8253;BME280;61313;48.396;10.008;2023-04-06T11:29:23;96307.53;;;14.31;22.14
8253;BME280;61313;48.396;10.008;2023-04-06T11:32:00;96311.31;;;13.83;23.03
8253;BME280;61313;48.396;10.008;2023-04-06T11:34:28;96315.78;;;13.66;22.62
8253;BME280;61313;48.396;10.008;2023-04-06T11:36:56;96312.56;;;13.29;23.52
8253;BME280;61313;48.396;10.008;2023-04-06T11:39:23;96310.34;;;12.90;23.99
8253;BME280;61313;48.396;10.008;2023-04-06T11:42:00;96304.72;;;13.60;24.08
8253;BME280;61313;48.396;10.008;2023-04-06T11:44:39;96298.50;;;14.35;22.81
8253;BME280;61313;48.396;10.008;2023-04-06T11:47:07;96291.94;;;14.71;22.11
8253;BME280;61313;48.396;10.008;2023-04-06T11:49:36;96295.59;;;14.83;22.50
8253;BME280;61313;48.396;10.008;2023-04-06T11:52:13;96295.88;;;15.07;22.39
8253;BME280;61313;48.396;10.008;2023-04-06T11:54:39;96290.25;;;15.12;22.25
8253;BME280;61313;48.396;10.008;2023-04-06T11:57:07;96286.91;;;15.10;21.78
8253;BME280;61313;48.396;10.008;2023-04-06T11:59:33;96287.84;;;14.94;22.08
8253;BME280;61313;48.396;10.008;2023-04-06T12:01:59;96287.56;;;14.99;22.30
8253;BME280;61313;48.396;10.008;2023-04-06T12:04:24;96275.78;;;14.76;22.41
8253;BME280;61313;48.396;10.008;2023-04-06T12:06:50;96280.31;;;14.74;23.01
8253;BME280;61313;48.396;10.008;2023-04-06T12:09:16;96284.38;;;14.94;22.87
8253;BME280;61313;48.396;10.008;2023-04-06T12:11:45;96287.22;;;14.76;22.98
8253;BME280;61313;48.396;10.008;2023-04-06T12:14:12;96278.41;;;14.90;23.26
8253;BME280;61313;48.396;10.008;2023-04-06T12:16:37;96271.47;;;14.75;23.50
8253;BME280;61313;48.396;10.008;2023-04-06T12:19:03;96280.22;;;14.75;22.85
8253;BME280;61313;48.396;10.008;2023-04-06T12:21:32;96278.53;;;14.89;22.87
8253;BME280;61313;48.396;10.008;2023-04-06T12:23:59;96275.34;;;14.84;22.73
8253;BME280;61313;48.396;10.008;2023-04-06T12:26:25;96272.09;;;14.50;22.98
8253;BME280;61313;48.396;10.008;2023-04-06T12:28:50;96270.91;;;14.41;23.33
8253;BME280;61313;48.396;10.008;2023-04-06T12:31:20;96262.03;;;14.56;23.63
8253;BME280;61313;48.396;10.008;2023-04-06T12:33:48;96263.59;;;14.16;23.13
8253;BME280;61313;48.396;10.008;2023-04-06T12:36:18;96264.38;;;14.32;23.93
8253;BME280;61313;48.396;10.008;2023-04-06T12:38:45;96263.97;;;14.38;23.55
8253;BME280;61313;48.396;10.008;2023-04-06T12:41:17;96256.09;;;13.49;24.68
8253;BME280;61313;48.396;10.008;2023-04-06T12:43:43;96255.47;;;13.60;24.12
8253;BME280;61313;48.396;10.008;2023-04-06T12:46:09;96256.88;;;13.96;24.23
8253;BME280;61313;48.396;10.008;2023-04-06T12:48:35;96251.50;;;13.53;24.05
8253;BME280;61313;48.396;10.008;2023-04-06T12:51:05;96248.91;;;13.21;25.11
8253;BME280;61313;48.396;10.008;2023-04-06T12:53:33;96240.38;;;13.32;23.91
8253;BME280;61313;48.396;10.008;2023-04-06T12:55:59;96245.25;;;12.92;24.71
8253;BME280;61313;48.396;10.008;2023-04-06T12:58:25;96243.56;;;13.07;23.63
8253;BME280;61313;48.396;10.008;2023-04-06T13:00:54;96239.13;;;13.23;24.44
8253;BME280;61313;48.396;10.008;2023-04-06T13:03:21;96237.69;;;12.70;24.70
8253;BME280;61313;48.396;10.008;2023-04-06T13:05:48;96223.66;;;13.01;24.43
8253;BME280;61313;48.396;10.008;2023-04-06T13:08:15;96228.59;;;13.53;25.22
8253;BME280;61313;48.396;10.008;2023-04-06T13:10:48;96233.28;;;13.79;24.31
8253;BME280;61313;48.396;10.008;2023-04-06T13:13:14;96233.16;;;14.10;23.87
8253;BME280;61313;48.396;10.008;2023-04-06T13:15:40;96225.41;;;14.07;24.25
8253;BME280;61313;48.396;10.008;2023-04-06T13:18:06;96225.25;;;14.39;43.52
8253;BME280;61313;48.396;10.008;2023-04-06T13:20:32;96222.88;;;13.91;25.29
8253;BME280;61313;48.396;10.008;2023-04-06T13:22:57;96228.19;;;12.83;24.41
8253;BME280;61313;48.396;10.008;2023-04-06T13:25:23;96229.53;;;12.59;25.42